Eastpointe, West Virginia
Current Conditions -  °F | °C
As of 12:06 PM on Friday 28 Nov 2014 (Local Time) from KCKB Reporting Station
Overcast Overcast  
Wind Chill: 21°   Ceiling: 2500
Heat Index: 29°   Visibility: 10mi
Dew Point: 18°   Wind: 8mph
Humidity: 64%   Direction: 270°W
Pressure: 30.31"   Gusts: NA
Location:  39.2808°N, 80.3447°W
Report Text: KCKB 281706Z 27007KT 10SM BKN025 OVC033 M02/M08 A3031 RMK AO2 SNE00 P0000 T10171078
Loading
Personal Weather Stations






























Interactive Weather Map New forecast layout! Learn more

10-Day Weather Forecast

Advertisements
Track Severe Weather on mobile